sensor_id;sensor_type;location;lat;lon;timestamp;P1;durP1;ratioP1;P2;durP2;ratioP2
60700;SDS011;46541;49.894;10.886;2022-12-07T00:01:14;9.55;;;5.50;;
60700;SDS011;46541;49.894;10.886;2022-12-07T00:03:41;8.10;;;5.18;;
60700;SDS011;46541;49.894;10.886;2022-12-07T00:06:13;8.20;;;5.28;;
60700;SDS011;46541;49.894;10.886;2022-12-07T00:08:41;9.23;;;5.60;;
60700;SDS011;46541;49.894;10.886;2022-12-07T00:11:10;8.27;;;5.18;;
60700;SDS011;46541;49.894;10.886;2022-12-07T00:13:38;7.68;;;5.25;;
60700;SDS011;46541;49.894;10.886;2022-12-07T00:16:07;10.55;;;5.32;;
60700;SDS011;46541;49.894;10.886;2022-12-07T00:18:36;7.70;;;5.30;;
60700;SDS011;46541;49.894;10.886;2022-12-07T00:21:04;8.07;;;5.40;;
60700;SDS011;46541;49.894;10.886;2022-12-07T00:23:37;7.35;;;5.38;;
60700;SDS011;46541;49.894;10.886;2022-12-07T00:28:33;9.63;;;5.97;;
60700;SDS011;46541;49.894;10.886;2022-12-07T00:31:11;10.57;;;6.35;;
60700;SDS011;46541;49.894;10.886;2022-12-07T00:33:38;8.32;;;5.60;;
60700;SDS011;46541;49.894;10.886;2022-12-07T00:36:06;7.22;;;5.57;;
60700;SDS011;46541;49.894;10.886;2022-12-07T00:38:35;9.52;;;6.47;;
60700;SDS011;46541;49.894;10.886;2022-12-07T00:41:04;8.40;;;5.97;;
60700;SDS011;46541;49.894;10.886;2022-12-07T00:43:33;10.50;;;7.03;;
60700;SDS011;46541;49.894;10.886;2022-12-07T00:46:00;8.60;;;6.20;;
60700;SDS011;46541;49.894;10.886;2022-12-07T00:48:27;9.02;;;6.40;;
60700;SDS011;46541;49.894;10.886;2022-12-07T00:50:53;8.43;;;6.05;;
60700;SDS011;46541;49.894;10.886;2022-12-07T00:53:20;7.68;;;5.72;;
60700;SDS011;46541;49.894;10.886;2022-12-07T00:55:47;8.85;;;6.03;;
60700;SDS011;46541;49.894;10.886;2022-12-07T00:58:14;9.45;;;6.03;;
60700;SDS011;46541;49.894;10.886;2022-12-07T01:00:42;8.63;;;5.72;;
60700;SDS011;46541;49.894;10.886;2022-12-07T01:03:11;8.00;;;5.60;;
60700;SDS011;46541;49.894;10.886;2022-12-07T01:05:39;10.07;;;6.88;;
60700;SDS011;46541;49.894;10.886;2022-12-07T01:08:14;9.73;;;6.32;;
60700;SDS011;46541;49.894;10.886;2022-12-07T01:10:41;9.02;;;5.68;;
60700;SDS011;46541;49.894;10.886;2022-12-07T01:13:08;9.40;;;6.20;;
60700;SDS011;46541;49.894;10.886;2022-12-07T01:15:38;12.30;;;6.78;;
60700;SDS011;46541;49.894;10.886;2022-12-07T01:18:06;10.38;;;6.15;;
60700;SDS011;46541;49.894;10.886;2022-12-07T01:20:32;10.25;;;6.30;;
60700;SDS011;46541;49.894;10.886;2022-12-07T01:22:59;8.93;;;6.30;;
60700;SDS011;46541;49.894;10.886;2022-12-07T01:25:26;10.23;;;7.15;;
60700;SDS011;46541;49.894;10.886;2022-12-07T01:27:53;11.13;;;7.60;;
60700;SDS011;46541;49.894;10.886;2022-12-07T01:30:19;8.93;;;6.28;;
60700;SDS011;46541;49.894;10.886;2022-12-07T01:32:46;9.15;;;7.18;;
60700;SDS011;46541;49.894;10.886;2022-12-07T01:35:13;10.98;;;7.38;;
60700;SDS011;46541;49.894;10.886;2022-12-07T01:37:40;11.77;;;7.05;;
60700;SDS011;46541;49.894;10.886;2022-12-07T01:40:07;11.45;;;7.07;;
60700;SDS011;46541;49.894;10.886;2022-12-07T01:42:34;10.02;;;6.35;;
60700;SDS011;46541;49.894;10.886;2022-12-07T01:48:02;11.02;;;6.10;;
60700;SDS011;46541;49.894;10.886;2022-12-07T01:50:30;10.80;;;7.07;;
60700;SDS011;46541;49.894;10.886;2022-12-07T01:52:57;11.85;;;7.25;;
60700;SDS011;46541;49.894;10.886;2022-12-07T01:55:27;11.50;;;6.70;;
60700;SDS011;46541;49.894;10.886;2022-12-07T01:57:54;13.75;;;7.60;;
60700;SDS011;46541;49.894;10.886;2022-12-07T02:00:22;12.77;;;7.60;;
60700;SDS011;46541;49.894;10.886;2022-12-07T02:03:24;15.15;;;8.30;;
60700;SDS011;46541;49.894;10.886;2022-12-07T02:05:48;12.00;;;7.50;;
60700;SDS011;46541;49.894;10.886;2022-12-07T02:08:16;16.30;;;8.63;;
60700;SDS011;46541;49.894;10.886;2022-12-07T02:10:44;11.95;;;7.55;;
60700;SDS011;46541;49.894;10.886;2022-12-07T02:13:13;13.32;;;8.10;;
60700;SDS011;46541;49.894;10.886;2022-12-07T02:24:16;10.35;;;7.28;;
60700;SDS011;46541;49.894;10.886;2022-12-07T02:26:50;12.50;;;8.00;;
60700;SDS011;46541;49.894;10.886;2022-12-07T02:29:22;12.32;;;7.60;;
60700;SDS011;46541;49.894;10.886;2022-12-07T02:32:18;11.77;;;7.32;;
60700;SDS011;46541;49.894;10.886;2022-12-07T02:35:07;10.93;;;7.28;;
60700;SDS011;46541;49.894;10.886;2022-12-07T02:37:50;10.45;;;7.45;;
60700;SDS011;46541;49.894;10.886;2022-12-07T02:42:53;12.68;;;8.23;;
60700;SDS011;46541;49.894;10.886;2022-12-07T02:45:26;13.45;;;8.00;;
60700;SDS011;46541;49.894;10.886;2022-12-07T02:47:56;10.85;;;7.45;;
60700;SDS011;46541;49.894;10.886;2022-12-07T02:50:25;14.38;;;8.60;;
60700;SDS011;46541;49.894;10.886;2022-12-07T02:52:52;12.80;;;8.75;;
60700;SDS011;46541;49.894;10.886;2022-12-07T02:55:20;14.55;;;8.93;;
60700;SDS011;46541;49.894;10.886;2022-12-07T02:58:00;14.05;;;8.73;;
60700;SDS011;46541;49.894;10.886;2022-12-07T03:00:35;14.70;;;8.88;;
60700;SDS011;46541;49.894;10.886;2022-12-07T03:03:10;15.88;;;8.82;;
60700;SDS011;46541;49.894;10.886;2022-12-07T03:05:46;12.45;;;8.52;;
60700;SDS011;46541;49.894;10.886;2022-12-07T03:08:34;15.95;;;9.32;;
60700;SDS011;46541;49.894;10.886;2022-12-07T03:11:12;12.18;;;8.50;;
60700;SDS011;46541;49.894;10.886;2022-12-07T03:13:51;13.32;;;8.00;;
60700;SDS011;46541;49.894;10.886;2022-12-07T03:16:21;14.27;;;8.13;;
60700;SDS011;46541;49.894;10.886;2022-12-07T03:18:50;13.73;;;8.18;;
60700;SDS011;46541;49.894;10.886;2022-12-07T03:21:23;14.25;;;8.45;;
60700;SDS011;46541;49.894;10.886;2022-12-07T03:24:04;15.73;;;9.40;;
60700;SDS011;46541;49.894;10.886;2022-12-07T03:26:42;15.40;;;9.52;;
60700;SDS011;46541;49.894;10.886;2022-12-07T03:29:19;15.30;;;9.48;;
60700;SDS011;46541;49.894;10.886;2022-12-07T03:31:52;17.40;;;10.07;;
60700;SDS011;46541;49.894;10.886;2022-12-07T03:34:27;15.45;;;9.98;;
60700;SDS011;46541;49.894;10.886;2022-12-07T03:37:01;15.73;;;9.82;;
60700;SDS011;46541;49.894;10.886;2022-12-07T03:39:43;13.07;;;8.88;;
60700;SDS011;46541;49.894;10.886;2022-12-07T03:42:15;14.45;;;8.90;;
60700;SDS011;46541;49.894;10.886;2022-12-07T03:44:42;14.50;;;8.98;;
60700;SDS011;46541;49.894;10.886;2022-12-07T03:47:17;13.25;;;8.68;;
60700;SDS011;46541;49.894;10.886;2022-12-07T03:50:00;16.85;;;10.23;;
60700;SDS011;46541;49.894;10.886;2022-12-07T03:52:46;13.63;;;8.43;;
60700;SDS011;46541;49.894;10.886;2022-12-07T03:57:51;13.07;;;8.15;;
60700;SDS011;46541;49.894;10.886;2022-12-07T04:00:22;19.23;;;8.63;;
60700;SDS011;46541;49.894;10.886;2022-12-07T04:02:51;15.65;;;9.25;;
60700;SDS011;46541;49.894;10.886;2022-12-07T04:05:19;15.27;;;9.48;;
60700;SDS011;46541;49.894;10.886;2022-12-07T04:07:46;14.27;;;9.23;;
60700;SDS011;46541;49.894;10.886;2022-12-07T04:10:13;13.82;;;8.68;;
60700;SDS011;46541;49.894;10.886;2022-12-07T04:12:40;14.65;;;8.70;;
60700;SDS011;46541;49.894;10.886;2022-12-07T04:15:07;13.55;;;9.02;;
60700;SDS011;46541;49.894;10.886;2022-12-07T04:17:34;13.93;;;8.60;;
60700;SDS011;46541;49.894;10.886;2022-12-07T04:20:02;15.27;;;8.98;;
60700;SDS011;46541;49.894;10.886;2022-12-07T04:22:30;16.65;;;10.15;;
60700;SDS011;46541;49.894;10.886;2022-12-07T04:24:57;15.88;;;9.05;;
60700;SDS011;46541;49.894;10.886;2022-12-07T04:27:24;14.88;;;8.85;;
60700;SDS011;46541;49.894;10.886;2022-12-07T04:29:50;16.83;;;9.38;;
60700;SDS011;46541;49.894;10.886;2022-12-07T04:32:17;16.08;;;9.00;;
60700;SDS011;46541;49.894;10.886;2022-12-07T04:34:44;19.23;;;10.07;;
60700;SDS011;46541;49.894;10.886;2022-12-07T04:37:11;14.25;;;9.20;;
60700;SDS011;46541;49.894;10.886;2022-12-07T04:39:37;15.48;;;8.98;;
60700;SDS011;46541;49.894;10.886;2022-12-07T04:42:04;15.77;;;9.52;;
60700;SDS011;46541;49.894;10.886;2022-12-07T04:44:31;17.95;;;9.60;;
60700;SDS011;46541;49.894;10.886;2022-12-07T04:46:58;16.92;;;10.23;;
60700;SDS011;46541;49.894;10.886;2022-12-07T04:49:25;16.25;;;9.52;;
60700;SDS011;46541;49.894;10.886;2022-12-07T04:51:52;15.23;;;9.57;;
60700;SDS011;46541;49.894;10.886;2022-12-07T04:54:19;15.35;;;9.45;;
60700;SDS011;46541;49.894;10.886;2022-12-07T04:56:46;16.75;;;9.60;;
60700;SDS011;46541;49.894;10.886;2022-12-07T04:59:13;14.88;;;8.48;;
60700;SDS011;46541;49.894;10.886;2022-12-07T05:01:41;18.50;;;8.93;;
60700;SDS011;46541;49.894;10.886;2022-12-07T05:04:08;16.45;;;8.77;;
60700;SDS011;46541;49.894;10.886;2022-12-07T05:06:35;15.98;;;9.43;;
60700;SDS011;46541;49.894;10.886;2022-12-07T05:09:02;15.07;;;9.88;;
60700;SDS011;46541;49.894;10.886;2022-12-07T05:11:29;16.10;;;10.00;;
60700;SDS011;46541;49.894;10.886;2022-12-07T05:16:37;14.23;;;8.18;;
60700;SDS011;46541;49.894;10.886;2022-12-07T05:19:04;16.45;;;9.10;;
60700;SDS011;46541;49.894;10.886;2022-12-07T05:21:31;15.50;;;9.32;;
60700;SDS011;46541;49.894;10.886;2022-12-07T05:23:58;16.05;;;9.23;;
60700;SDS011;46541;49.894;10.886;2022-12-07T05:26:26;15.05;;;8.88;;
60700;SDS011;46541;49.894;10.886;2022-12-07T05:28:54;17.30;;;10.07;;
60700;SDS011;46541;49.894;10.886;2022-12-07T05:31:22;16.58;;;10.00;;
60700;SDS011;46541;49.894;10.886;2022-12-07T05:33:50;18.77;;;9.50;;
60700;SDS011;46541;49.894;10.886;2022-12-07T05:36:17;17.40;;;10.27;;
60700;SDS011;46541;49.894;10.886;2022-12-07T05:38:43;14.93;;;8.98;;
60700;SDS011;46541;49.894;10.886;2022-12-07T05:41:12;16.38;;;8.35;;
60700;SDS011;46541;49.894;10.886;2022-12-07T05:44:00;15.00;;;9.63;;
60700;SDS011;46541;49.894;10.886;2022-12-07T05:46:27;17.27;;;10.30;;
60700;SDS011;46541;49.894;10.886;2022-12-07T05:48:54;18.60;;;10.88;;
60700;SDS011;46541;49.894;10.886;2022-12-07T05:51:20;17.38;;;10.43;;
60700;SDS011;46541;49.894;10.886;2022-12-07T05:53:47;18.33;;;10.25;;
60700;SDS011;46541;49.894;10.886;2022-12-07T05:56:14;16.75;;;9.20;;
60700;SDS011;46541;49.894;10.886;2022-12-07T05:58:41;18.95;;;10.25;;
60700;SDS011;46541;49.894;10.886;2022-12-07T06:01:26;19.17;;;10.95;;
60700;SDS011;46541;49.894;10.886;2022-12-07T06:03:53;21.25;;;11.80;;
60700;SDS011;46541;49.894;10.886;2022-12-07T06:06:20;20.02;;;11.02;;
60700;SDS011;46541;49.894;10.886;2022-12-07T06:08:47;19.52;;;10.65;;
60700;SDS011;46541;49.894;10.886;2022-12-07T06:11:14;18.98;;;10.90;;
60700;SDS011;46541;49.894;10.886;2022-12-07T06:13:59;20.63;;;11.75;;
60700;SDS011;46541;49.894;10.886;2022-12-07T06:16:26;17.80;;;10.48;;
60700;SDS011;46541;49.894;10.886;2022-12-07T06:18:53;17.67;;;11.20;;
60700;SDS011;46541;49.894;10.886;2022-12-07T06:21:20;19.70;;;12.07;;
60700;SDS011;46541;49.894;10.886;2022-12-07T06:23:46;20.08;;;11.45;;
60700;SDS011;46541;49.894;10.886;2022-12-07T06:26:14;19.70;;;11.55;;
60700;SDS011;46541;49.894;10.886;2022-12-07T06:28:40;23.73;;;11.48;;
60700;SDS011;46541;49.894;10.886;2022-12-07T06:31:07;25.58;;;12.82;;
60700;SDS011;46541;49.894;10.886;2022-12-07T06:33:39;19.58;;;10.90;;
60700;SDS011;46541;49.894;10.886;2022-12-07T06:36:06;22.30;;;12.80;;
60700;SDS011;46541;49.894;10.886;2022-12-07T06:38:33;17.80;;;10.18;;
60700;SDS011;46541;49.894;10.886;2022-12-07T06:41:00;15.80;;;9.80;;
60700;SDS011;46541;49.894;10.886;2022-12-07T06:43:27;20.27;;;10.98;;
60700;SDS011;46541;49.894;10.886;2022-12-07T06:45:54;17.50;;;10.25;;
60700;SDS011;46541;49.894;10.886;2022-12-07T06:48:21;19.48;;;10.63;;
60700;SDS011;46541;49.894;10.886;2022-12-07T06:50:48;23.70;;;10.95;;
60700;SDS011;46541;49.894;10.886;2022-12-07T06:53:20;19.40;;;10.88;;
60700;SDS011;46541;49.894;10.886;2022-12-07T06:55:47;20.55;;;10.57;;
60700;SDS011;46541;49.894;10.886;2022-12-07T06:58:14;18.10;;;10.48;;
60700;SDS011;46541;49.894;10.886;2022-12-07T07:00:41;20.25;;;11.88;;
60700;SDS011;46541;49.894;10.886;2022-12-07T07:03:08;22.85;;;12.70;;
60700;SDS011;46541;49.894;10.886;2022-12-07T07:05:35;22.00;;;12.32;;
60700;SDS011;46541;49.894;10.886;2022-12-07T07:08:02;17.55;;;10.57;;
60700;SDS011;46541;49.894;10.886;2022-12-07T07:10:47;22.88;;;12.80;;
60700;SDS011;46541;49.894;10.886;2022-12-07T07:13:14;20.65;;;12.82;;
60700;SDS011;46541;49.894;10.886;2022-12-07T07:15:41;18.67;;;11.60;;
60700;SDS011;46541;49.894;10.886;2022-12-07T07:18:08;19.10;;;11.55;;
60700;SDS011;46541;49.894;10.886;2022-12-07T07:20:35;21.20;;;11.25;;
60700;SDS011;46541;49.894;10.886;2022-12-07T07:23:03;19.23;;;10.85;;
60700;SDS011;46541;49.894;10.886;2022-12-07T07:25:30;21.30;;;11.27;;
60700;SDS011;46541;49.894;10.886;2022-12-07T07:27:56;19.02;;;11.43;;
60700;SDS011;46541;49.894;10.886;2022-12-07T07:30:23;22.10;;;12.45;;
60700;SDS011;46541;49.894;10.886;2022-12-07T07:32:50;17.33;;;9.88;;
60700;SDS011;46541;49.894;10.886;2022-12-07T07:35:17;20.25;;;11.18;;
60700;SDS011;46541;49.894;10.886;2022-12-07T07:37:44;20.25;;;11.60;;
60700;SDS011;46541;49.894;10.886;2022-12-07T07:40:10;21.05;;;10.77;;
60700;SDS011;46541;49.894;10.886;2022-12-07T07:42:37;20.90;;;11.90;;
60700;SDS011;46541;49.894;10.886;2022-12-07T07:45:04;18.17;;;11.10;;
60700;SDS011;46541;49.894;10.886;2022-12-07T07:47:31;18.10;;;10.15;;
60700;SDS011;46541;49.894;10.886;2022-12-07T07:49:58;16.65;;;10.18;;
60700;SDS011;46541;49.894;10.886;2022-12-07T07:52:25;20.52;;;10.80;;
60700;SDS011;46541;49.894;10.886;2022-12-07T07:54:52;17.75;;;10.07;;
60700;SDS011;46541;49.894;10.886;2022-12-07T07:57:19;17.83;;;10.30;;
60700;SDS011;46541;49.894;10.886;2022-12-07T07:59:46;18.50;;;10.52;;
60700;SDS011;46541;49.894;10.886;2022-12-07T08:02:16;16.25;;;9.73;;
60700;SDS011;46541;49.894;10.886;2022-12-07T08:04:45;20.70;;;10.75;;
60700;SDS011;46541;49.894;10.886;2022-12-07T08:07:13;17.00;;;10.80;;
60700;SDS011;46541;49.894;10.886;2022-12-07T08:09:41;19.90;;;10.05;;
60700;SDS011;46541;49.894;10.886;2022-12-07T08:12:08;16.92;;;10.23;;
60700;SDS011;46541;49.894;10.886;2022-12-07T08:14:35;16.85;;;10.32;;
60700;SDS011;46541;49.894;10.886;2022-12-07T08:17:01;15.45;;;9.85;;
60700;SDS011;46541;49.894;10.886;2022-12-07T08:19:28;22.25;;;11.40;;
60700;SDS011;46541;49.894;10.886;2022-12-07T08:21:55;15.02;;;9.55;;
60700;SDS011;46541;49.894;10.886;2022-12-07T08:24:22;16.00;;;9.18;;
60700;SDS011;46541;49.894;10.886;2022-12-07T08:26:51;18.05;;;9.88;;
60700;SDS011;46541;49.894;10.886;2022-12-07T08:29:18;19.17;;;10.35;;
60700;SDS011;46541;49.894;10.886;2022-12-07T08:31:45;17.70;;;10.90;;
60700;SDS011;46541;49.894;10.886;2022-12-07T08:34:12;15.55;;;9.30;;
60700;SDS011;46541;49.894;10.886;2022-12-07T08:36:39;18.58;;;10.65;;
60700;SDS011;46541;49.894;10.886;2022-12-07T08:39:06;18.02;;;10.70;;
60700;SDS011;46541;49.894;10.886;2022-12-07T08:41:53;15.73;;;10.35;;
60700;SDS011;46541;49.894;10.886;2022-12-07T08:44:20;22.38;;;10.45;;
60700;SDS011;46541;49.894;10.886;2022-12-07T08:46:51;18.48;;;9.82;;
60700;SDS011;46541;49.894;10.886;2022-12-07T08:49:23;16.73;;;10.40;;
60700;SDS011;46541;49.894;10.886;2022-12-07T08:51:57;18.60;;;10.27;;
60700;SDS011;46541;49.894;10.886;2022-12-07T08:54:24;19.80;;;10.27;;
60700;SDS011;46541;49.894;10.886;2022-12-07T08:56:51;19.92;;;11.20;;
60700;SDS011;46541;49.894;10.886;2022-12-07T08:59:24;16.20;;;9.52;;
60700;SDS011;46541;49.894;10.886;2022-12-07T09:01:52;18.45;;;11.10;;
60700;SDS011;46541;49.894;10.886;2022-12-07T09:04:19;17.67;;;11.10;;
60700;SDS011;46541;49.894;10.886;2022-12-07T09:06:46;16.92;;;9.88;;
60700;SDS011;46541;49.894;10.886;2022-12-07T09:09:14;18.00;;;11.10;;
60700;SDS011;46541;49.894;10.886;2022-12-07T09:11:41;17.05;;;10.23;;
60700;SDS011;46541;49.894;10.886;2022-12-07T09:14:08;18.23;;;10.65;;
60700;SDS011;46541;49.894;10.886;2022-12-07T09:16:35;22.63;;;11.10;;
60700;SDS011;46541;49.894;10.886;2022-12-07T09:19:02;18.20;;;10.18;;
60700;SDS011;46541;49.894;10.886;2022-12-07T09:21:28;19.08;;;10.73;;
60700;SDS011;46541;49.894;10.886;2022-12-07T09:23:55;17.73;;;10.40;;
60700;SDS011;46541;49.894;10.886;2022-12-07T09:26:22;18.42;;;11.70;;
60700;SDS011;46541;49.894;10.886;2022-12-07T09:28:49;19.48;;;11.38;;
60700;SDS011;46541;49.894;10.886;2022-12-07T09:31:15;18.83;;;11.63;;
60700;SDS011;46541;49.894;10.886;2022-12-07T09:33:58;21.73;;;12.88;;
60700;SDS011;46541;49.894;10.886;2022-12-07T09:36:27;18.45;;;10.88;;
60700;SDS011;46541;49.894;10.886;2022-12-07T09:38:55;17.52;;;11.18;;
60700;SDS011;46541;49.894;10.886;2022-12-07T09:41:22;18.27;;;10.70;;
60700;SDS011;46541;49.894;10.886;2022-12-07T09:43:51;17.40;;;9.93;;
60700;SDS011;46541;49.894;10.886;2022-12-07T09:46:19;18.90;;;10.32;;
60700;SDS011;46541;49.894;10.886;2022-12-07T09:48:47;16.95;;;10.57;;
60700;SDS011;46541;49.894;10.886;2022-12-07T09:51:20;17.75;;;11.30;;
60700;SDS011;46541;49.894;10.886;2022-12-07T09:53:50;18.35;;;9.88;;
60700;SDS011;46541;49.894;10.886;2022-12-07T09:56:18;18.67;;;10.55;;
60700;SDS011;46541;49.894;10.886;2022-12-07T09:58:46;15.27;;;10.07;;
60700;SDS011;46541;49.894;10.886;2022-12-07T10:01:15;18.70;;;10.80;;
60700;SDS011;46541;49.894;10.886;2022-12-07T10:03:50;17.83;;;10.77;;
60700;SDS011;46541;49.894;10.886;2022-12-07T10:06:19;18.45;;;11.80;;
60700;SDS011;46541;49.894;10.886;2022-12-07T10:08:47;18.63;;;11.30;;
60700;SDS011;46541;49.894;10.886;2022-12-07T10:11:14;18.67;;;11.75;;
60700;SDS011;46541;49.894;10.886;2022-12-07T10:13:49;18.70;;;12.10;;
60700;SDS011;46541;49.894;10.886;2022-12-07T10:18:54;18.08;;;11.10;;
60700;SDS011;46541;49.894;10.886;2022-12-07T10:21:22;17.30;;;10.13;;
60700;SDS011;46541;49.894;10.886;2022-12-07T10:26:29;19.10;;;10.95;;
60700;SDS011;46541;49.894;10.886;2022-12-07T10:31:51;20.90;;;10.52;;
60700;SDS011;46541;49.894;10.886;2022-12-07T10:36:51;20.27;;;11.35;;
60700;SDS011;46541;49.894;10.886;2022-12-07T10:39:19;20.05;;;10.75;;
60700;SDS011;46541;49.894;10.886;2022-12-07T10:44:23;16.25;;;9.88;;
60700;SDS011;46541;49.894;10.886;2022-12-07T10:52:13;16.25;;;9.60;;
60700;SDS011;46541;49.894;10.886;2022-12-07T11:05:06;24.38;;;14.23;;
60700;SDS011;46541;49.894;10.886;2022-12-07T11:13:18;24.63;;;13.13;;
60700;SDS011;46541;49.894;10.886;2022-12-07T11:18:52;19.13;;;11.23;;
60700;SDS011;46541;49.894;10.886;2022-12-07T11:34:51;16.02;;;9.82;;
60700;SDS011;46541;49.894;10.886;2022-12-07T11:37:32;13.63;;;7.80;;
60700;SDS011;46541;49.894;10.886;2022-12-07T11:40:05;10.80;;;6.35;;
60700;SDS011;46541;49.894;10.886;2022-12-07T11:43:01;11.65;;;6.72;;
60700;SDS011;46541;49.894;10.886;2022-12-07T11:45:34;11.02;;;7.20;;
60700;SDS011;46541;49.894;10.886;2022-12-07T11:48:05;13.65;;;7.90;;
60700;SDS011;46541;49.894;10.886;2022-12-07T11:50:52;13.93;;;6.95;;
60700;SDS011;46541;49.894;10.886;2022-12-07T11:53:25;12.95;;;8.38;;
60700;SDS011;46541;49.894;10.886;2022-12-07T11:56:03;9.93;;;7.22;;
60700;SDS011;46541;49.894;10.886;2022-12-07T12:04:00;12.05;;;8.30;;
60700;SDS011;46541;49.894;10.886;2022-12-07T12:06:37;14.98;;;9.18;;
60700;SDS011;46541;49.894;10.886;2022-12-07T12:09:15;13.45;;;7.82;;
60700;SDS011;46541;49.894;10.886;2022-12-07T12:20:40;14.02;;;8.15;;
60700;SDS011;46541;49.894;10.886;2022-12-07T12:23:12;12.52;;;7.90;;
60700;SDS011;46541;49.894;10.886;2022-12-07T12:25:46;10.90;;;7.35;;
60700;SDS011;46541;49.894;10.886;2022-12-07T12:28:27;12.18;;;7.38;;
60700;SDS011;46541;49.894;10.886;2022-12-07T12:31:05;10.93;;;6.60;;
60700;SDS011;46541;49.894;10.886;2022-12-07T12:33:42;14.50;;;7.18;;
60700;SDS011;46541;49.894;10.886;2022-12-07T12:36:18;11.27;;;6.68;;
60700;SDS011;46541;49.894;10.886;2022-12-07T12:46:55;7.70;;;5.53;;
60700;SDS011;46541;49.894;10.886;2022-12-07T12:51:57;10.45;;;5.95;;
60700;SDS011;46541;49.894;10.886;2022-12-07T12:57:26;11.40;;;6.82;;
60700;SDS011;46541;49.894;10.886;2022-12-07T13:02:30;12.52;;;6.85;;
60700;SDS011;46541;49.894;10.886;2022-12-07T13:05:01;13.73;;;7.93;;
60700;SDS011;46541;49.894;10.886;2022-12-07T13:15:49;10.07;;;5.65;;
60700;SDS011;46541;49.894;10.886;2022-12-07T13:28:49;8.50;;;5.95;;
60700;SDS011;46541;49.894;10.886;2022-12-07T13:31:34;9.40;;;5.90;;
60700;SDS011;46541;49.894;10.886;2022-12-07T13:37:18;10.20;;;6.00;;
60700;SDS011;46541;49.894;10.886;2022-12-07T13:40:17;20.42;;;8.98;;
60700;SDS011;46541;49.894;10.886;2022-12-07T13:42:46;12.55;;;6.55;;
60700;SDS011;46541;49.894;10.886;2022-12-07T13:48:35;9.60;;;5.85;;
60700;SDS011;46541;49.894;10.886;2022-12-07T13:51:12;10.48;;;5.93;;
60700;SDS011;46541;49.894;10.886;2022-12-07T13:53:53;10.07;;;4.55;;
60700;SDS011;46541;49.894;10.886;2022-12-07T13:56:31;10.23;;;5.25;;
60700;SDS011;46541;49.894;10.886;2022-12-07T13:59:00;9.57;;;5.32;;
60700;SDS011;46541;49.894;10.886;2022-12-07T14:01:27;10.38;;;5.03;;
60700;SDS011;46541;49.894;10.886;2022-12-07T14:04:15;9.98;;;4.88;;
60700;SDS011;46541;49.894;10.886;2022-12-07T14:06:55;7.03;;;4.75;;
60700;SDS011;46541;49.894;10.886;2022-12-07T14:09:22;13.05;;;5.28;;
60700;SDS011;46541;49.894;10.886;2022-12-07T14:11:55;13.45;;;5.72;;
60700;SDS011;46541;49.894;10.886;2022-12-07T14:14:26;13.18;;;6.95;;
60700;SDS011;46541;49.894;10.886;2022-12-07T14:17:18;10.02;;;6.38;;
60700;SDS011;46541;49.894;10.886;2022-12-07T14:22:27;9.38;;;5.25;;
60700;SDS011;46541;49.894;10.886;2022-12-07T14:25:11;8.90;;;5.15;;
60700;SDS011;46541;49.894;10.886;2022-12-07T14:27:48;13.35;;;5.90;;
60700;SDS011;46541;49.894;10.886;2022-12-07T14:30:15;10.85;;;5.55;;
60700;SDS011;46541;49.894;10.886;2022-12-07T14:32:43;11.93;;;4.55;;
60700;SDS011;46541;49.894;10.886;2022-12-07T14:35:15;10.95;;;5.93;;
60700;SDS011;46541;49.894;10.886;2022-12-07T14:37:44;14.77;;;6.03;;
60700;SDS011;46541;49.894;10.886;2022-12-07T14:40:17;11.70;;;6.10;;
60700;SDS011;46541;49.894;10.886;2022-12-07T14:42:50;10.80;;;5.87;;
60700;SDS011;46541;49.894;10.886;2022-12-07T14:45:21;9.80;;;5.65;;
60700;SDS011;46541;49.894;10.886;2022-12-07T14:47:49;11.57;;;5.70;;
60700;SDS011;46541;49.894;10.886;2022-12-07T14:50:36;9.15;;;5.28;;
60700;SDS011;46541;49.894;10.886;2022-12-07T14:53:29;5.75;;;3.40;;
60700;SDS011;46541;49.894;10.886;2022-12-07T14:55:59;8.00;;;3.53;;
60700;SDS011;46541;49.894;10.886;2022-12-07T14:58:26;5.97;;;3.50;;
60700;SDS011;46541;49.894;10.886;2022-12-07T15:00:53;5.70;;;3.80;;
60700;SDS011;46541;49.894;10.886;2022-12-07T15:03:20;6.10;;;3.80;;
60700;SDS011;46541;49.894;10.886;2022-12-07T15:05:47;7.90;;;4.85;;
60700;SDS011;46541;49.894;10.886;2022-12-07T15:08:13;7.95;;;4.55;;
60700;SDS011;46541;49.894;10.886;2022-12-07T15:10:40;9.38;;;5.03;;
60700;SDS011;46541;49.894;10.886;2022-12-07T15:13:07;9.07;;;5.32;;
60700;SDS011;46541;49.894;10.886;2022-12-07T15:15:53;8.77;;;5.70;;
60700;SDS011;46541;49.894;10.886;2022-12-07T15:18:21;11.90;;;5.90;;
60700;SDS011;46541;49.894;10.886;2022-12-07T15:20:49;9.23;;;5.65;;
60700;SDS011;46541;49.894;10.886;2022-12-07T15:23:17;10.65;;;6.35;;
60700;SDS011;46541;49.894;10.886;2022-12-07T15:25:45;11.65;;;6.68;;
60700;SDS011;46541;49.894;10.886;2022-12-07T15:28:13;16.10;;;6.38;;
60700;SDS011;46541;49.894;10.886;2022-12-07T15:30:41;12.02;;;6.15;;
60700;SDS011;46541;49.894;10.886;2022-12-07T15:33:10;13.05;;;7.38;;
60700;SDS011;46541;49.894;10.886;2022-12-07T15:35:38;13.27;;;6.55;;
60700;SDS011;46541;49.894;10.886;2022-12-07T15:38:06;12.23;;;6.38;;
60700;SDS011;46541;49.894;10.886;2022-12-07T15:40:33;9.82;;;5.90;;
60700;SDS011;46541;49.894;10.886;2022-12-07T15:43:00;13.10;;;5.70;;
60700;SDS011;46541;49.894;10.886;2022-12-07T15:45:27;11.90;;;6.22;;
60700;SDS011;46541;49.894;10.886;2022-12-07T15:47:54;9.48;;;6.55;;
60700;SDS011;46541;49.894;10.886;2022-12-07T15:50:41;16.73;;;6.20;;
60700;SDS011;46541;49.894;10.886;2022-12-07T15:53:08;7.40;;;5.45;;
60700;SDS011;46541;49.894;10.886;2022-12-07T15:55:34;7.57;;;4.53;;
60700;SDS011;46541;49.894;10.886;2022-12-07T15:58:04;11.23;;;5.80;;
60700;SDS011;46541;49.894;10.886;2022-12-07T16:00:31;9.13;;;5.38;;
60700;SDS011;46541;49.894;10.886;2022-12-07T16:02:58;8.35;;;4.60;;
60700;SDS011;46541;49.894;10.886;2022-12-07T16:05:25;8.07;;;5.03;;
60700;SDS011;46541;49.894;10.886;2022-12-07T16:07:51;8.18;;;4.78;;
60700;SDS011;46541;49.894;10.886;2022-12-07T16:10:18;7.43;;;4.97;;
60700;SDS011;46541;49.894;10.886;2022-12-07T16:12:45;10.45;;;4.90;;
60700;SDS011;46541;49.894;10.886;2022-12-07T16:15:12;8.32;;;3.75;;
60700;SDS011;46541;49.894;10.886;2022-12-07T16:17:38;10.70;;;5.43;;
60700;SDS011;46541;49.894;10.886;2022-12-07T16:20:05;9.90;;;4.95;;
60700;SDS011;46541;49.894;10.886;2022-12-07T16:22:34;8.70;;;5.72;;
60700;SDS011;46541;49.894;10.886;2022-12-07T16:25:01;9.95;;;5.47;;
60700;SDS011;46541;49.894;10.886;2022-12-07T16:27:29;13.45;;;5.20;;
60700;SDS011;46541;49.894;10.886;2022-12-07T16:29:55;10.10;;;5.15;;
60700;SDS011;46541;49.894;10.886;2022-12-07T16:32:22;10.43;;;5.40;;
60700;SDS011;46541;49.894;10.886;2022-12-07T16:34:49;9.45;;;4.78;;
60700;SDS011;46541;49.894;10.886;2022-12-07T16:37:16;8.40;;;5.43;;
60700;SDS011;46541;49.894;10.886;2022-12-07T16:39:42;9.93;;;4.43;;
60700;SDS011;46541;49.894;10.886;2022-12-07T16:42:09;10.52;;;4.90;;
60700;SDS011;46541;49.894;10.886;2022-12-07T16:44:36;10.05;;;6.32;;
60700;SDS011;46541;49.894;10.886;2022-12-07T16:47:03;9.98;;;6.20;;
60700;SDS011;46541;49.894;10.886;2022-12-07T16:49:30;11.02;;;5.80;;